sensor_id;sensor_type;location;lat;lon;timestamp;pressure;altitude;pressure_sealevel;temperature
73673;BMP280;61972;19.480;-99.240;2023-07-09T00:01:16;77582.94;;;32.58
73673;BMP280;61972;19.480;-99.240;2023-07-09T00:03:46;77591.53;;;32.61
73673;BMP280;61972;19.480;-99.240;2023-07-09T00:06:18;77593.25;;;32.65
73673;BMP280;61972;19.480;-99.240;2023-07-09T00:08:45;77600.78;;;32.67
73673;BMP280;61972;19.480;-99.240;2023-07-09T00:11:14;77601.41;;;32.71
73673;BMP280;61972;19.480;-99.240;2023-07-09T00:13:41;77598.88;;;32.73
73673;BMP280;61972;19.480;-99.240;2023-07-09T00:16:13;77600.53;;;32.75
73673;BMP280;61972;19.480;-99.240;2023-07-09T00:18:39;77608.56;;;32.77
73673;BMP280;61972;19.480;-99.240;2023-07-09T00:21:06;77604.91;;;32.79
73673;BMP280;61972;19.480;-99.240;2023-07-09T00:23:32;77609.75;;;32.81
73673;BMP280;61972;19.480;-99.240;2023-07-09T00:25:58;77612.41;;;32.81
73673;BMP280;61972;19.480;-99.240;2023-07-09T00:28:24;77608.91;;;32.73
73673;BMP280;61972;19.480;-99.240;2023-07-09T00:30:51;77619.72;;;32.65
73673;BMP280;61972;19.480;-99.240;2023-07-09T00:33:17;77622.63;;;32.58
73673;BMP280;61972;19.480;-99.240;2023-07-09T00:35:47;77632.34;;;32.50
73673;BMP280;61972;19.480;-99.240;2023-07-09T00:38:24;77626.19;;;32.42
73673;BMP280;61972;19.480;-99.240;2023-07-09T00:41:02;77630.63;;;32.34
73673;BMP280;61972;19.480;-99.240;2023-07-09T00:43:34;77633.50;;;32.26
73673;BMP280;61972;19.480;-99.240;2023-07-09T00:48:52;77651.47;;;32.14
73673;BMP280;61972;19.480;-99.240;2023-07-09T00:51:21;77644.31;;;32.07
73673;BMP280;61972;19.480;-99.240;2023-07-09T00:53:51;77649.38;;;32.02
73673;BMP280;61972;19.480;-99.240;2023-07-09T00:56:31;77654.44;;;31.97
73673;BMP280;61972;19.480;-99.240;2023-07-09T00:58:59;77660.63;;;31.93
73673;BMP280;61972;19.480;-99.240;2023-07-09T01:01:31;77661.47;;;31.88
73673;BMP280;61972;19.480;-99.240;2023-07-09T01:03:59;77663.91;;;31.83
73673;BMP280;61972;19.480;-99.240;2023-07-09T01:06:52;77665.91;;;31.80
73673;BMP280;61972;19.480;-99.240;2023-07-09T01:09:22;77667.88;;;31.77
73673;BMP280;61972;19.480;-99.240;2023-07-09T01:11:48;77667.22;;;31.74
73673;BMP280;61972;19.480;-99.240;2023-07-09T01:14:17;77666.53;;;31.71
73673;BMP280;61972;19.480;-99.240;2023-07-09T01:16:55;77651.56;;;31.67
73673;BMP280;61972;19.480;-99.240;2023-07-09T01:19:28;77642.44;;;31.63
73673;BMP280;61972;19.480;-99.240;2023-07-09T01:21:56;77640.78;;;31.62
73673;BMP280;61972;19.480;-99.240;2023-07-09T01:24:48;77643.22;;;31.57
73673;BMP280;61972;19.480;-99.240;2023-07-09T01:27:15;77652.66;;;31.56
73673;BMP280;61972;19.480;-99.240;2023-07-09T01:29:42;77654.63;;;31.52
73673;BMP280;61972;19.480;-99.240;2023-07-09T01:32:08;77641.88;;;31.50
73673;BMP280;61972;19.480;-99.240;2023-07-09T01:34:35;77648.00;;;31.46
73673;BMP280;61972;19.480;-99.240;2023-07-09T01:37:01;77645.84;;;31.44
73673;BMP280;61972;19.480;-99.240;2023-07-09T01:39:28;77641.00;;;31.42
73673;BMP280;61972;19.480;-99.240;2023-07-09T01:41:55;77653.09;;;31.41
73673;BMP280;61972;19.480;-99.240;2023-07-09T01:44:22;77646.72;;;31.40
73673;BMP280;61972;19.480;-99.240;2023-07-09T01:46:48;77639.22;;;31.38
73673;BMP280;61972;19.480;-99.240;2023-07-09T01:49:16;77641.84;;;31.38
73673;BMP280;61972;19.480;-99.240;2023-07-09T01:51:42;77647.56;;;31.36
73673;BMP280;61972;19.480;-99.240;2023-07-09T01:54:08;77650.09;;;31.34
73673;BMP280;61972;19.480;-99.240;2023-07-09T01:56:34;77653.72;;;31.32
73673;BMP280;61972;19.480;-99.240;2023-07-09T01:59:04;77661.53;;;31.29
73673;BMP280;61972;19.480;-99.240;2023-07-09T02:01:31;77681.00;;;31.28
73673;BMP280;61972;19.480;-99.240;2023-07-09T02:03:59;77687.81;;;31.27
73673;BMP280;61972;19.480;-99.240;2023-07-09T02:06:25;77699.34;;;31.25
73673;BMP280;61972;19.480;-99.240;2023-07-09T02:08:51;77704.53;;;31.23
73673;BMP280;61972;19.480;-99.240;2023-07-09T02:11:17;77712.34;;;31.20
73673;BMP280;61972;19.480;-99.240;2023-07-09T02:13:43;77713.31;;;31.19
73673;BMP280;61972;19.480;-99.240;2023-07-09T02:16:09;77712.66;;;31.16
73673;BMP280;61972;19.480;-99.240;2023-07-09T02:18:35;77720.00;;;31.15
73673;BMP280;61972;19.480;-99.240;2023-07-09T02:21:02;77718.34;;;31.13
73673;BMP280;61972;19.480;-99.240;2023-07-09T02:23:28;77721.44;;;31.11
73673;BMP280;61972;19.480;-99.240;2023-07-09T02:25:54;77725.59;;;31.10
73673;BMP280;61972;19.480;-99.240;2023-07-09T02:28:21;77718.69;;;31.09
73673;BMP280;61972;19.480;-99.240;2023-07-09T02:30:47;77723.84;;;31.06
73673;BMP280;61972;19.480;-99.240;2023-07-09T02:33:13;77728.97;;;31.04
73673;BMP280;61972;19.480;-99.240;2023-07-09T02:35:39;77735.81;;;31.03
73673;BMP280;61972;19.480;-99.240;2023-07-09T02:38:05;77739.97;;;31.02
73673;BMP280;61972;19.480;-99.240;2023-07-09T02:40:31;77736.78;;;31.01
73673;BMP280;61972;19.480;-99.240;2023-07-09T02:42:59;77734.03;;;30.99
73673;BMP280;61972;19.480;-99.240;2023-07-09T02:45:25;77730.31;;;30.98
73673;BMP280;61972;19.480;-99.240;2023-07-09T02:47:51;77732.38;;;30.97
73673;BMP280;61972;19.480;-99.240;2023-07-09T02:50:17;77729.63;;;30.95
73673;BMP280;61972;19.480;-99.240;2023-07-09T02:52:43;77723.22;;;30.93
73673;BMP280;61972;19.480;-99.240;2023-07-09T02:55:10;77725.75;;;30.91
73673;BMP280;61972;19.480;-99.240;2023-07-09T02:57:36;77734.78;;;30.92
73673;BMP280;61972;19.480;-99.240;2023-07-09T03:00:02;77740.47;;;30.90
73673;BMP280;61972;19.480;-99.240;2023-07-09T03:02:31;77747.81;;;30.89
73673;BMP280;61972;19.480;-99.240;2023-07-09T03:04:57;77744.09;;;30.88
73673;BMP280;61972;19.480;-99.240;2023-07-09T03:07:23;77754.09;;;30.88
73673;BMP280;61972;19.480;-99.240;2023-07-09T03:09:49;77757.84;;;30.89
73673;BMP280;61972;19.480;-99.240;2023-07-09T03:12:15;77766.88;;;30.90
73673;BMP280;61972;19.480;-99.240;2023-07-09T03:14:41;77770.63;;;30.91
73673;BMP280;61972;19.480;-99.240;2023-07-09T03:17:07;77779.66;;;30.92
73673;BMP280;61972;19.480;-99.240;2023-07-09T03:19:33;77781.28;;;30.93
73673;BMP280;61972;19.480;-99.240;2023-07-09T03:21:59;77785.56;;;30.95
73673;BMP280;61972;19.480;-99.240;2023-07-09T03:24:25;77785.03;;;30.95
73673;BMP280;61972;19.480;-99.240;2023-07-09T03:26:51;77789.31;;;30.96
73673;BMP280;61972;19.480;-99.240;2023-07-09T03:29:18;77820.44;;;30.96
73673;BMP280;61972;19.480;-99.240;2023-07-09T03:31:44;77818.25;;;30.93
73673;BMP280;61972;19.480;-99.240;2023-07-09T03:34:10;77818.66;;;30.91
73673;BMP280;61972;19.480;-99.240;2023-07-09T03:36:37;77822.28;;;30.90
73673;BMP280;61972;19.480;-99.240;2023-07-09T03:39:03;77833.25;;;30.88
73673;BMP280;61972;19.480;-99.240;2023-07-09T03:41:29;77844.25;;;30.86
73673;BMP280;61972;19.480;-99.240;2023-07-09T03:43:56;77839.38;;;30.84
73673;BMP280;61972;19.480;-99.240;2023-07-09T03:46:22;77835.53;;;30.80
73673;BMP280;61972;19.480;-99.240;2023-07-09T03:48:48;77844.97;;;30.79
73673;BMP280;61972;19.480;-99.240;2023-07-09T03:51:16;77843.31;;;30.78
73673;BMP280;61972;19.480;-99.240;2023-07-09T03:54:02;77852.75;;;30.77
73673;BMP280;61972;19.480;-99.240;2023-07-09T03:56:28;77852.19;;;30.76
73673;BMP280;61972;19.480;-99.240;2023-07-09T03:58:54;77856.94;;;30.76
73673;BMP280;61972;19.480;-99.240;2023-07-09T04:01:20;77857.47;;;30.76
73673;BMP280;61972;19.480;-99.240;2023-07-09T04:03:47;77851.09;;;30.75
73673;BMP280;61972;19.480;-99.240;2023-07-09T04:06:13;77859.41;;;30.73
73673;BMP280;61972;19.480;-99.240;2023-07-09T04:08:39;77866.09;;;30.69
73673;BMP280;61972;19.480;-99.240;2023-07-09T04:11:06;77858.63;;;30.67
73673;BMP280;61972;19.480;-99.240;2023-07-09T04:13:32;77858.63;;;30.67
73673;BMP280;61972;19.480;-99.240;2023-07-09T04:15:58;77858.63;;;30.67
73673;BMP280;61972;19.480;-99.240;2023-07-09T04:18:24;77868.06;;;30.66
73673;BMP280;61972;19.480;-99.240;2023-07-09T04:20:51;77861.69;;;30.65
73673;BMP280;61972;19.480;-99.240;2023-07-09T04:23:18;77860.59;;;30.64
73673;BMP280;61972;19.480;-99.240;2023-07-09T04:25:45;77863.66;;;30.62
73673;BMP280;61972;19.480;-99.240;2023-07-09T04:28:11;77857.25;;;30.61
73673;BMP280;61972;19.480;-99.240;2023-07-09T04:30:37;77856.16;;;30.60
73673;BMP280;61972;19.480;-99.240;2023-07-09T04:33:04;77848.66;;;30.58
73673;BMP280;61972;19.480;-99.240;2023-07-09T04:35:30;77851.72;;;30.56
73673;BMP280;61972;19.480;-99.240;2023-07-09T04:37:56;77839.53;;;30.54
73673;BMP280;61972;19.480;-99.240;2023-07-09T04:40:22;77836.31;;;30.54
73673;BMP280;61972;19.480;-99.240;2023-07-09T04:42:48;77836.75;;;30.52
73673;BMP280;61972;19.480;-99.240;2023-07-09T04:45:15;77841.47;;;30.51
73673;BMP280;61972;19.480;-99.240;2023-07-09T04:47:41;77843.97;;;30.49
73673;BMP280;61972;19.480;-99.240;2023-07-09T04:50:08;77845.09;;;30.50
73673;BMP280;61972;19.480;-99.240;2023-07-09T04:52:35;77846.47;;;30.46
73673;BMP280;61972;19.480;-99.240;2023-07-09T04:55:01;77852.31;;;30.47
73673;BMP280;61972;19.480;-99.240;2023-07-09T04:57:28;77852.19;;;30.44
73673;BMP280;61972;19.480;-99.240;2023-07-09T04:59:54;77858.44;;;30.43
73673;BMP280;61972;19.480;-99.240;2023-07-09T05:02:20;77858.84;;;30.41
73673;BMP280;61972;19.480;-99.240;2023-07-09T05:04:46;77860.38;;;30.40
73673;BMP280;61972;19.480;-99.240;2023-07-09T05:07:12;77854.56;;;30.39
73673;BMP280;61972;19.480;-99.240;2023-07-09T05:09:38;77850.25;;;30.38
73673;BMP280;61972;19.480;-99.240;2023-07-09T05:12:05;77855.94;;;30.35
73673;BMP280;61972;19.480;-99.240;2023-07-09T05:14:31;77851.50;;;30.31
73673;BMP280;61972;19.480;-99.240;2023-07-09T05:16:57;77853.44;;;30.28
73673;BMP280;61972;19.480;-99.240;2023-07-09T05:19:23;77853.31;;;30.26
73673;BMP280;61972;19.480;-99.240;2023-07-09T05:21:49;77860.41;;;30.20
73673;BMP280;61972;19.480;-99.240;2023-07-09T05:24:15;77866.53;;;30.16
73673;BMP280;61972;19.480;-99.240;2023-07-09T05:26:42;77867.38;;;30.12
73673;BMP280;61972;19.480;-99.240;2023-07-09T05:29:08;77865.16;;;30.10
73673;BMP280;61972;19.480;-99.240;2023-07-09T05:31:34;77865.59;;;30.08
73673;BMP280;61972;19.480;-99.240;2023-07-09T05:34:02;77870.88;;;30.08
73673;BMP280;61972;19.480;-99.240;2023-07-09T05:36:28;77874.59;;;30.09
73673;BMP280;61972;19.480;-99.240;2023-07-09T05:38:55;77865.72;;;30.10
73673;BMP280;61972;19.480;-99.240;2023-07-09T05:41:22;77862.13;;;30.12
73673;BMP280;61972;19.480;-99.240;2023-07-09T05:43:50;77864.31;;;30.14
73673;BMP280;61972;19.480;-99.240;2023-07-09T05:46:17;77860.16;;;30.15
73673;BMP280;61972;19.480;-99.240;2023-07-09T05:48:44;77862.38;;;30.17
73673;BMP280;61972;19.480;-99.240;2023-07-09T05:51:10;77856.00;;;30.16
73673;BMP280;61972;19.480;-99.240;2023-07-09T05:53:36;77851.81;;;30.17
73673;BMP280;61972;19.480;-99.240;2023-07-09T05:56:02;77852.94;;;30.18
73673;BMP280;61972;19.480;-99.240;2023-07-09T05:58:28;77846.69;;;30.20
73673;BMP280;61972;19.480;-99.240;2023-07-09T06:00:55;77841.41;;;30.20
73673;BMP280;61972;19.480;-99.240;2023-07-09T06:03:26;77843.09;;;30.21
73673;BMP280;61972;19.480;-99.240;2023-07-09T06:05:52;77838.78;;;30.20
73673;BMP280;61972;19.480;-99.240;2023-07-09T06:08:22;77844.59;;;30.20
73673;BMP280;61972;19.480;-99.240;2023-07-09T06:10:57;77852.50;;;30.20
73673;BMP280;61972;19.480;-99.240;2023-07-09T06:13:24;77847.25;;;30.20
73673;BMP280;61972;19.480;-99.240;2023-07-09T06:15:53;77848.22;;;30.19
73673;BMP280;61972;19.480;-99.240;2023-07-09T06:18:20;77846.53;;;30.17
73673;BMP280;61972;19.480;-99.240;2023-07-09T06:20:54;77845.44;;;30.16
73673;BMP280;61972;19.480;-99.240;2023-07-09T06:23:21;77845.44;;;30.16
73673;BMP280;61972;19.480;-99.240;2023-07-09T06:25:47;77845.44;;;30.16
73673;BMP280;61972;19.480;-99.240;2023-07-09T06:28:15;77850.72;;;30.16
73673;BMP280;61972;19.480;-99.240;2023-07-09T06:30:42;77849.06;;;30.14
73673;BMP280;61972;19.480;-99.240;2023-07-09T06:33:08;77843.22;;;30.14
73673;BMP280;61972;19.480;-99.240;2023-07-09T06:35:35;77844.34;;;30.15
73673;BMP280;61972;19.480;-99.240;2023-07-09T06:38:01;77833.25;;;30.14
73673;BMP280;61972;19.480;-99.240;2023-07-09T06:40:28;77832.16;;;30.13
73673;BMP280;61972;19.480;-99.240;2023-07-09T06:42:54;77837.94;;;30.14
73673;BMP280;61972;19.480;-99.240;2023-07-09T06:45:21;77838.50;;;30.14
73673;BMP280;61972;19.480;-99.240;2023-07-09T06:47:47;77835.31;;;30.14
73673;BMP280;61972;19.480;-99.240;2023-07-09T06:50:15;77832.66;;;30.14
73673;BMP280;61972;19.480;-99.240;2023-07-09T06:52:41;77826.31;;;30.13
73673;BMP280;61972;19.480;-99.240;2023-07-09T06:55:07;77823.69;;;30.13
73673;BMP280;61972;19.480;-99.240;2023-07-09T06:57:34;77821.59;;;30.13
73673;BMP280;61972;19.480;-99.240;2023-07-09T07:00:00;77819.38;;;30.11
73673;BMP280;61972;19.480;-99.240;2023-07-09T07:02:26;77825.75;;;30.12
73673;BMP280;61972;19.480;-99.240;2023-07-09T07:04:52;77826.31;;;30.13
73673;BMP280;61972;19.480;-99.240;2023-07-09T07:07:19;77824.09;;;30.11
73673;BMP280;61972;19.480;-99.240;2023-07-09T07:09:46;77818.28;;;30.10
73673;BMP280;61972;19.480;-99.240;2023-07-09T07:12:23;77816.19;;;30.11
73673;BMP280;61972;19.480;-99.240;2023-07-09T07:14:51;77814.53;;;30.09
73673;BMP280;61972;19.480;-99.240;2023-07-09T07:17:17;77806.06;;;30.09
73673;BMP280;61972;19.480;-99.240;2023-07-09T07:19:43;77809.69;;;30.07
73673;BMP280;61972;19.480;-99.240;2023-07-09T07:22:09;77808.00;;;30.06
73673;BMP280;61972;19.480;-99.240;2023-07-09T07:24:35;77804.81;;;30.05
73673;BMP280;61972;19.480;-99.240;2023-07-09T07:27:02;77801.09;;;30.04
73673;BMP280;61972;19.480;-99.240;2023-07-09T07:29:29;77798.88;;;30.02
73673;BMP280;61972;19.480;-99.240;2023-07-09T07:31:55;77799.41;;;30.03
73673;BMP280;61972;19.480;-99.240;2023-07-09T07:34:21;77797.78;;;30.01
73673;BMP280;61972;19.480;-99.240;2023-07-09T07:36:49;77790.41;;;30.02
73673;BMP280;61972;19.480;-99.240;2023-07-09T07:39:15;77791.94;;;30.01
73673;BMP280;61972;19.480;-99.240;2023-07-09T07:41:41;77796.22;;;30.02
73673;BMP280;61972;19.480;-99.240;2023-07-09T07:44:07;77785.69;;;30.02
73673;BMP280;61972;19.480;-99.240;2023-07-09T07:46:34;77785.16;;;30.02
73673;BMP280;61972;19.480;-99.240;2023-07-09T07:49:02;77787.34;;;30.04
73673;BMP280;61972;19.480;-99.240;2023-07-09T07:51:28;77785.84;;;30.05
73673;BMP280;61972;19.480;-99.240;2023-07-09T07:53:55;77783.75;;;30.05
73673;BMP280;61972;19.480;-99.240;2023-07-09T07:56:21;77779.44;;;30.04
73673;BMP280;61972;19.480;-99.240;2023-07-09T07:58:48;77774.75;;;30.04
73673;BMP280;61972;19.480;-99.240;2023-07-09T08:01:14;77770.03;;;30.05
73673;BMP280;61972;19.480;-99.240;2023-07-09T08:03:40;77767.78;;;30.03
73673;BMP280;61972;19.480;-99.240;2023-07-09T08:06:06;77768.38;;;30.03
73673;BMP280;61972;19.480;-99.240;2023-07-09T08:08:32;77764.19;;;30.04
73673;BMP280;61972;19.480;-99.240;2023-07-09T08:11:05;77759.06;;;30.07
73673;BMP280;61972;19.480;-99.240;2023-07-09T08:13:33;77758.06;;;30.08
73673;BMP280;61972;19.480;-99.240;2023-07-09T08:16:00;77761.81;;;30.09
73673;BMP280;61972;19.480;-99.240;2023-07-09T08:18:26;77759.75;;;30.10
73673;BMP280;61972;19.480;-99.240;2023-07-09T08:20:52;77759.88;;;30.12
73673;BMP280;61972;19.480;-99.240;2023-07-09T08:23:19;77762.50;;;30.12
73673;BMP280;61972;19.480;-99.240;2023-07-09T08:25:53;77758.34;;;30.13
73673;BMP280;61972;19.480;-99.240;2023-07-09T08:28:19;77760.84;;;30.11
73673;BMP280;61972;19.480;-99.240;2023-07-09T08:30:45;77757.25;;;30.03
73673;BMP280;61972;19.480;-99.240;2023-07-09T08:33:11;77761.72;;;29.97
73673;BMP280;61972;19.480;-99.240;2023-07-09T08:35:38;77751.47;;;29.92
73673;BMP280;61972;19.480;-99.240;2023-07-09T08:38:04;77751.34;;;29.90
73673;BMP280;61972;19.480;-99.240;2023-07-09T08:40:30;77754.25;;;29.85
73673;BMP280;61972;19.480;-99.240;2023-07-09T08:43:06;77760.34;;;29.81
73673;BMP280;61972;19.480;-99.240;2023-07-09T08:50:47;77756.53;;;29.68
73673;BMP280;61972;19.480;-99.240;2023-07-09T08:53:20;77763.72;;;29.65
73673;BMP280;61972;19.480;-99.240;2023-07-09T08:55:49;77751.81;;;29.58
73673;BMP280;61972;19.480;-99.240;2023-07-09T08:58:25;77759.03;;;29.55
73673;BMP280;61972;19.480;-99.240;2023-07-09T09:00:59;77755.16;;;29.52
73673;BMP280;61972;19.480;-99.240;2023-07-09T09:03:43;77754.34;;;29.46
73673;BMP280;61972;19.480;-99.240;2023-07-09T09:06:16;77749.91;;;29.42
73673;BMP280;61972;19.480;-99.240;2023-07-09T09:11:46;77751.59;;;29.34
73673;BMP280;61972;19.480;-99.240;2023-07-09T09:14:36;77752.41;;;29.30
73673;BMP280;61972;19.480;-99.240;2023-07-09T09:17:11;77742.72;;;29.26
73673;BMP280;61972;19.480;-99.240;2023-07-09T09:19:55;77747.84;;;29.23
73673;BMP280;61972;19.480;-99.240;2023-07-09T09:22:24;77751.31;;;29.19
73673;BMP280;61972;19.480;-99.240;2023-07-09T09:25:29;77749.50;;;29.15
73673;BMP280;61972;19.480;-99.240;2023-07-09T09:27:58;77746.72;;;29.12
73673;BMP280;61972;19.480;-99.240;2023-07-09T09:30:25;77750.78;;;29.09
73673;BMP280;61972;19.480;-99.240;2023-07-09T09:32:55;77744.81;;;29.06
73673;BMP280;61972;19.480;-99.240;2023-07-09T09:35:42;77743.00;;;29.01
73673;BMP280;61972;19.480;-99.240;2023-07-09T09:38:22;77739.13;;;28.98
73673;BMP280;61972;19.480;-99.240;2023-07-09T09:40:49;77745.38;;;28.96
73673;BMP280;61972;19.480;-99.240;2023-07-09T09:43:18;77739.94;;;28.94
73673;BMP280;61972;19.480;-99.240;2023-07-09T09:45:47;77743.56;;;28.92
73673;BMP280;61972;19.480;-99.240;2023-07-09T09:48:39;77739.13;;;28.88
73673;BMP280;61972;19.480;-99.240;2023-07-09T09:51:06;77742.72;;;28.87
73673;BMP280;61972;19.480;-99.240;2023-07-09T09:53:38;77749.91;;;28.83
73673;BMP280;61972;19.480;-99.240;2023-07-09T09:56:07;77745.63;;;28.82
73673;BMP280;61972;19.480;-99.240;2023-07-09T09:58:40;77746.59;;;28.80
73673;BMP280;61972;19.480;-99.240;2023-07-09T10:01:15;77742.72;;;28.77
73673;BMP280;61972;19.480;-99.240;2023-07-09T10:03:43;77752.69;;;28.76
73673;BMP280;61972;19.480;-99.240;2023-07-09T10:06:27;77749.34;;;28.73
73673;BMP280;61972;19.480;-99.240;2023-07-09T10:14:37;77754.34;;;28.68
73673;BMP280;61972;19.480;-99.240;2023-07-09T10:17:20;77757.91;;;28.67
73673;BMP280;61972;19.480;-99.240;2023-07-09T10:20:04;77756.28;;;28.65
73673;BMP280;61972;19.480;-99.240;2023-07-09T10:28:35;77751.69;;;28.58
73673;BMP280;61972;19.480;-99.240;2023-07-09T10:31:17;77754.16;;;28.56
73673;BMP280;61972;19.480;-99.240;2023-07-09T10:36:48;77748.78;;;28.53
73673;BMP280;61972;19.480;-99.240;2023-07-09T10:39:35;77751.78;;;28.51
73673;BMP280;61972;19.480;-99.240;2023-07-09T10:42:03;77747.53;;;28.50
73673;BMP280;61972;19.480;-99.240;2023-07-09T10:44:35;77747.91;;;28.48
73673;BMP280;61972;19.480;-99.240;2023-07-09T10:47:28;77753.59;;;28.45
73673;BMP280;61972;19.480;-99.240;2023-07-09T10:49:55;77756.78;;;28.46
73673;BMP280;61972;19.480;-99.240;2023-07-09T10:52:42;77754.41;;;28.41
73673;BMP280;61972;19.480;-99.240;2023-07-09T10:55:17;77753.31;;;28.40
73673;BMP280;61972;19.480;-99.240;2023-07-09T10:57:49;77750.13;;;28.40
73673;BMP280;61972;19.480;-99.240;2023-07-09T11:00:21;77753.72;;;28.38
73673;BMP280;61972;19.480;-99.240;2023-07-09T11:03:00;77752.03;;;28.37
73673;BMP280;61972;19.480;-99.240;2023-07-09T11:05:28;77749.28;;;28.34
73673;BMP280;61972;19.480;-99.240;2023-07-09T11:08:02;77753.44;;;28.33
73673;BMP280;61972;19.480;-99.240;2023-07-09T11:10:40;77748.16;;;28.33
73673;BMP280;61972;19.480;-99.240;2023-07-09T11:13:15;77751.75;;;28.32
73673;BMP280;61972;19.480;-99.240;2023-07-09T11:15:46;77752.72;;;28.30
73673;BMP280;61972;19.480;-99.240;2023-07-09T11:18:26;77761.56;;;28.29
73673;BMP280;61972;19.480;-99.240;2023-07-09T11:21:06;77763.09;;;28.27
73673;BMP280;61972;19.480;-99.240;2023-07-09T11:23:59;77768.22;;;28.25
73673;BMP280;61972;19.480;-99.240;2023-07-09T11:26:33;77770.84;;;28.25
73673;BMP280;61972;19.480;-99.240;2023-07-09T11:29:15;77765.97;;;28.23
73673;BMP280;61972;19.480;-99.240;2023-07-09T11:31:43;77779.13;;;28.23
73673;BMP280;61972;19.480;-99.240;2023-07-09T11:34:18;77768.06;;;28.22
73673;BMP280;61972;19.480;-99.240;2023-07-09T11:36:59;77774.28;;;28.21
73673;BMP280;61972;19.480;-99.240;2023-07-09T11:39:43;77778.41;;;28.20
73673;BMP280;61972;19.480;-99.240;2023-07-09T11:42:30;77779.94;;;28.19
73673;BMP280;61972;19.480;-99.240;2023-07-09T11:47:49;77791.97;;;28.18
73673;BMP280;61972;19.480;-99.240;2023-07-09T11:50:39;77802.88;;;28.16
73673;BMP280;61972;19.480;-99.240;2023-07-09T11:55:54;77800.66;;;28.14
73673;BMP280;61972;19.480;-99.240;2023-07-09T11:58:21;77799.00;;;28.12
73673;BMP280;61972;19.480;-99.240;2023-07-09T12:00:50;77803.69;;;28.12
73673;BMP280;61972;19.480;-99.240;2023-07-09T12:03:31;77805.22;;;28.11
73673;BMP280;61972;19.480;-99.240;2023-07-09T12:06:13;77806.72;;;28.10
73673;BMP280;61972;19.480;-99.240;2023-07-09T12:08:42;77815.59;;;28.08
73673;BMP280;61972;19.480;-99.240;2023-07-09T12:13:45;77823.88;;;28.06
73673;BMP280;61972;19.480;-99.240;2023-07-09T12:16:44;77822.19;;;28.04
73673;BMP280;61972;19.480;-99.240;2023-07-09T12:19:16;77826.31;;;28.03
73673;BMP280;61972;19.480;-99.240;2023-07-09T12:21:44;77829.38;;;28.01
73673;BMP280;61972;19.480;-99.240;2023-07-09T12:24:18;77834.63;;;28.01
73673;BMP280;61972;19.480;-99.240;2023-07-09T12:26:52;77833.50;;;28.00
73673;BMP280;61972;19.480;-99.240;2023-07-09T12:29:18;77831.84;;;27.99
73673;BMP280;61972;19.480;-99.240;2023-07-09T12:31:44;77826.03;;;27.98
73673;BMP280;61972;19.480;-99.240;2023-07-09T12:34:13;77819.09;;;27.97
73673;BMP280;61972;19.480;-99.240;2023-07-09T12:36:46;77823.81;;;27.96
73673;BMP280;61972;19.480;-99.240;2023-07-09T12:39:16;77822.69;;;27.95
73673;BMP280;61972;19.480;-99.240;2023-07-09T12:41:44;77837.91;;;27.95
73673;BMP280;61972;19.480;-99.240;2023-07-09T12:44:20;77840.94;;;27.93
73673;BMP280;61972;19.480;-99.240;2023-07-09T12:46:48;77845.63;;;27.92
73673;BMP280;61972;19.480;-99.240;2023-07-09T12:49:26;77855.00;;;27.91
73673;BMP280;61972;19.480;-99.240;2023-07-09T12:52:00;77850.72;;;27.89
73673;BMP280;61972;19.480;-99.240;2023-07-09T12:54:29;77851.69;;;27.88
73673;BMP280;61972;19.480;-99.240;2023-07-09T12:56:56;77851.69;;;27.88
73673;BMP280;61972;19.480;-99.240;2023-07-09T12:59:27;77854.72;;;27.86
73673;BMP280;61972;19.480;-99.240;2023-07-09T13:02:02;77857.75;;;27.84
73673;BMP280;61972;19.480;-99.240;2023-07-09T13:04:32;77857.75;;;27.84
73673;BMP280;61972;19.480;-99.240;2023-07-09T13:07:00;77861.88;;;27.83
73673;BMP280;61972;19.480;-99.240;2023-07-09T13:09:27;77861.88;;;27.83
73673;BMP280;61972;19.480;-99.240;2023-07-09T13:11:55;77860.75;;;27.82
73673;BMP280;61972;19.480;-99.240;2023-07-09T13:14:29;77857.03;;;27.81
73673;BMP280;61972;19.480;-99.240;2023-07-09T13:17:06;77862.28;;;27.81
73673;BMP280;61972;19.480;-99.240;2023-07-09T13:19:33;77852.34;;;27.81
73673;BMP280;61972;19.480;-99.240;2023-07-09T13:21:59;77859.66;;;27.81
73673;BMP280;61972;19.480;-99.240;2023-07-09T13:24:28;77866.44;;;27.80
73673;BMP280;61972;19.480;-99.240;2023-07-09T13:26:55;77873.19;;;27.79
73673;BMP280;61972;19.480;-99.240;2023-07-09T13:29:26;77878.44;;;27.79
73673;BMP280;61972;19.480;-99.240;2023-07-09T13:31:53;77879.94;;;27.78
73673;BMP280;61972;19.480;-99.240;2023-07-09T13:34:30;77881.47;;;27.77
73673;BMP280;61972;19.480;-99.240;2023-07-09T13:36:58;77876.78;;;27.77
73673;BMP280;61972;19.480;-99.240;2023-07-09T13:39:26;77877.31;;;27.78
73673;BMP280;61972;19.480;-99.240;2023-07-09T13:41:52;77885.63;;;27.76
73673;BMP280;61972;19.480;-99.240;2023-07-09T13:44:24;77881.47;;;27.77
73673;BMP280;61972;19.480;-99.240;2023-07-09T13:46:51;77887.13;;;27.75
73673;BMP280;61972;19.480;-99.240;2023-07-09T13:49:22;77893.91;;;27.74
73673;BMP280;61972;19.480;-99.240;2023-07-09T13:51:51;77898.56;;;27.73
73673;BMP280;61972;19.480;-99.240;2023-07-09T13:54:27;77894.84;;;27.72
73673;BMP280;61972;19.480;-99.240;2023-07-09T13:57:01;77903.28;;;27.73
73673;BMP280;61972;19.480;-99.240;2023-07-09T13:59:28;77901.06;;;27.70
73673;BMP280;61972;19.480;-99.240;2023-07-09T14:01:56;77906.31;;;27.70
73673;BMP280;61972;19.480;-99.240;2023-07-09T14:04:24;77911.00;;;27.70
73673;BMP280;61972;19.480;-99.240;2023-07-09T14:06:50;77915.69;;;27.69
73673;BMP280;61972;19.480;-99.240;2023-07-09T14:09:16;77914.56;;;27.68
73673;BMP280;61972;19.480;-99.240;2023-07-09T14:11:51;77914.56;;;27.68
73673;BMP280;61972;19.480;-99.240;2023-07-09T14:14:18;77908.22;;;27.67
73673;BMP280;61972;19.480;-99.240;2023-07-09T14:16:47;77920.78;;;27.67
73673;BMP280;61972;19.480;-99.240;2023-07-09T14:19:19;77923.41;;;27.67
73673;BMP280;61972;19.480;-99.240;2023-07-09T14:21:46;77921.72;;;27.65
73673;BMP280;61972;19.480;-99.240;2023-07-09T14:24:27;77922.84;;;27.66
73673;BMP280;61972;19.480;-99.240;2023-07-09T14:26:57;77916.91;;;27.63
73673;BMP280;61972;19.480;-99.240;2023-07-09T14:29:24;77912.75;;;27.64
73673;BMP280;61972;19.480;-99.240;2023-07-09T14:31:50;77916.47;;;27.65